Terminal Aerodrome Forecast
Issued by NWS

Home | Current Version | Previous Version | Text Only | Print | Product List | Glossary On
Versions: 1 2 3 4 5 6 7 8 9 10 11 12 13 14 15 16 17 18 19 20
836
FTUS41 KILN 281634 AAB
TAFLCK
TAF AMD
KLCK 281634Z 2817/2912 27007KT P6SM BKN013 BKN018 OVC080
     FM281800 22005KT P6SM VCSH BKN040 BKN150
     FM290300 VRB04KT P6SM BKN090
     FM290800 VRB02KT 3SM BR BKN150=

USA.gov is the U.S. government's official web portal to all federal, state and local government web resources and services.